WetterOnline ( https://www.wetteronline.ch )

Wetter aktuell Trostberg

Aktuelles Wetter: Chieming (553m)

6-stündlich | Neueste Meldungen
Ortszeit Temperatur Wetter
Sa, 24.08. 20:00 21.7° C wolkig
Sa, 24.08. 14:00 23.3° C leicht bewölkt
Sa, 24.08. 8:00 15.0° C bewölkt
Sa, 24.08. 2:00 16.3° C wolkig
Fr, 23.08. 20:00 19.4° C bedeckt
Fr, 23.08. 14:00 21.3° C bewölkt
Fr, 23.08. 8:00 14.6° C bedeckt
Fr, 23.08. 2:00 12.5° C bewölkt
Ortszeit Temperatur Wetter
So, 25.08. 0:00 16.8° C wolkig
Sa, 24.08. 23:50 16.8° C wolkig
Sa, 24.08. 23:40 17.3° C bewölkt
Sa, 24.08. 23:30 17.3° C bedeckt
Sa, 24.08. 23:20 17.3° C bedeckt
Sa, 24.08. 23:10 17.6° C bedeckt
Sa, 24.08. 23:00 17.5° C bedeckt
Sa, 24.08. 22:30 17.8° C bedeckt
Sa, 24.08. 22:00 18.3° C bedeckt
Sa, 24.08. 21:30 18.5° C bedeckt
Sa, 24.08. 21:00 19.6° C bedeckt
Ortszeit Relative Feuchte Sichtweite
Sa, 24.08. 20:00 69% 18 km
Sa, 24.08. 14:00 71% 11 km
Sa, 24.08. 8:00 99% 3.4 km
Sa, 24.08. 2:00 97% 5.0 km
Fr, 23.08. 20:00 88% 12 km
Fr, 23.08. 14:00 78% 7 km
Fr, 23.08. 8:00 97% 7 km
Fr, 23.08. 2:00 99% 7 km
Ortszeit Relative Feuchte Sichtweite
So, 25.08. 0:00 88% 17 km
Sa, 24.08. 23:50 88% -
Sa, 24.08. 23:40 85% -
Sa, 24.08. 23:30 85% 15 km
Sa, 24.08. 23:20 85% -
Sa, 24.08. 23:10 84% -
Sa, 24.08. 23:00 84% 19 km
Sa, 24.08. 22:30 81% 18 km
Sa, 24.08. 22:00 78% 23 km
Sa, 24.08. 21:30 75% 24 km
Sa, 24.08. 21:00 67% 26 km
Ortszeit Niederschlagsmenge Niederschlagsart
Sa, 24.08. 20:00 0.0 l/m2 in 12 Std. -
Sa, 24.08. 14:00 0.0 l/m2 in 6 Std. -
Sa, 24.08. 8:00 0.0 l/m2 in 12 Std. -
Sa, 24.08. 2:00 0.0 l/m2 in 6 Std. -
Fr, 23.08. 20:00 0.0 l/m2 in 12 Std. -
Fr, 23.08. 14:00 0.0 l/m2 in 6 Std. -
Fr, 23.08. 8:00 0.0 l/m2 in 12 Std. -
Fr, 23.08. 2:00 0.0 l/m2 in 6 Std. -
Ortszeit Niederschlagsmenge Niederschlagsart
So, 25.08. 0:00 0.0 l/m2 in 1 Std. -
Sa, 24.08. 23:50 keine Meldung -
Sa, 24.08. 23:40 keine Meldung -
Sa, 24.08. 23:30 0.0 l/m2 in 1 Std. -
Sa, 24.08. 23:20 keine Meldung -
Sa, 24.08. 23:10 keine Meldung -
Sa, 24.08. 23:00 0.0 l/m2 in 1 Std. -
Sa, 24.08. 22:30 0.0 l/m2 in 1 Std. -
Sa, 24.08. 22:00 0.0 l/m2 in 1 Std. -
Sa, 24.08. 21:30 0.0 l/m2 in 1 Std. -
Sa, 24.08. 21:00 0.0 l/m2 in 1 Std. -
Ortszeit Stärke Spitze Richtung
km/h Bft. km/h Grad Sektor
Sa, 24.08. 20:00 20 4 31 210° SW
Sa, 24.08. 14:00 11 2 14 250° W
Sa, 24.08. 8:00 4 1 11 90° O
Sa, 24.08. 2:00 4 1 11 120° SO
Fr, 23.08. 20:00 4 1 29 60° NO
Fr, 23.08. 14:00 17 3 26 60° NO
Fr, 23.08. 8:00 0 0 7 - -
Fr, 23.08. 2:00 7 2 11 60° NO
Ortszeit Stärke Spitze Richtung
km/h Bft. km/h Grad Sektor
So, 25.08. 0:00 4 1 11 170° S
Sa, 24.08. 23:50 4 1 - 170° S
Sa, 24.08. 23:40 6 1 - 180° S
Sa, 24.08. 23:30 7 2 11 190° S
Sa, 24.08. 23:20 7 2 - 190° S
Sa, 24.08. 23:10 7 2 - 190° S
Sa, 24.08. 23:00 4 1 14 170° S
Sa, 24.08. 22:30 4 1 14 190° S
Sa, 24.08. 22:00 11 2 22 240° SW
Sa, 24.08. 21:30 11 2 22 210° SW
Sa, 24.08. 21:00 11 2 40 190° S
Ortszeit Untergrenze Bedeckung Gattung
total tief tief mittel hoch
Sa, 24.08. 20:00 2100 m 8/8 3/8 - - -
Sa, 24.08. 14:00 6000 m 8/8 1/8 - - -
Sa, 24.08. 8:00 4500 m 8/8 4/8 - - -
Sa, 24.08. 2:00 6000 m 8/8 1/8 - - -
Fr, 23.08. 20:00 930 m 8/8 8/8 - - -
Fr, 23.08. 14:00 1050 m 7/8 7/8 - - -
Fr, 23.08. 8:00 720 m 8/8 8/8 - - -
Fr, 23.08. 2:00 870 m 7/8 7/8 - - -
Ortszeit Bedeckungsgrad in Achtel und Wolkenuntergrenze
So, 25.08. 0:00 2(6900m) 8(9000m)
Sa, 24.08. 23:50 2(6900m) 8(9000m)
Sa, 24.08. 23:40 4(6600m) 8(9000m)
Sa, 24.08. 23:30 4(5700m) 8(6300m) 8(9000m)
Sa, 24.08. 23:20 4(5700m) 8(6300m) 8(9000m)
Sa, 24.08. 23:10 8(5700m) 8(9000m)
Sa, 24.08. 23:00 8(5400m)
Sa, 24.08. 22:30 8(5400m)
Sa, 24.08. 22:00 2(4200m) 8(5100m)
Sa, 24.08. 21:30 8(3600m) 8(4500m)
Sa, 24.08. 21:00 6(3300m) 8(4200m)
Ortszeit Luftdruck NN (hPa) Tendenz (hPa in 3 Std.)
Sa, 24.08. 20:00 1018 + 0,4
Sa, 24.08. 14:00 1018 - 0,7
Sa, 24.08. 8:00 1021 - 0,2
Sa, 24.08. 2:00 1021 - 0,9
Fr, 23.08. 20:00 1022 - 0,1
Fr, 23.08. 14:00 1023 - 0,6
Fr, 23.08. 8:00 1026 + 0,2
Fr, 23.08. 2:00 1026 - 0,6
Ortszeit Luftdruck NN (hPa) Tendenz (hPa in 3 Std.)
So, 25.08. 0:00 1019 - 0,5
Sa, 24.08. 23:50 1019 keine Meldung
Sa, 24.08. 23:40 1019 keine Meldung
Sa, 24.08. 23:30 1019 - 0,4
Sa, 24.08. 23:20 1019 keine Meldung
Sa, 24.08. 23:10 1019 keine Meldung
Sa, 24.08. 23:00 1019 - 0,1
Sa, 24.08. 22:30 1019 + 0,4
Sa, 24.08. 22:00 1019 + 0,4
Sa, 24.08. 21:30 1019 + 0,4
Sa, 24.08. 21:00 1019 + 0,8
Ortszeit Schneehöhe (cm)
Sa, 24.08. 20:00 -
Sa, 24.08. 14:00 -
Sa, 24.08. 8:00 -
Sa, 24.08. 2:00 -
Fr, 23.08. 20:00 -
Fr, 23.08. 14:00 -
Fr, 23.08. 8:00 -
Fr, 23.08. 2:00 -
Ortszeit Schneehöhe (cm)
So, 25.08. 0:00 -
Sa, 24.08. 23:50 -
Sa, 24.08. 23:40 -
Sa, 24.08. 23:30 -
Sa, 24.08. 23:20 -
Sa, 24.08. 23:10 -
Sa, 24.08. 23:00 -
Sa, 24.08. 22:30 -
Sa, 24.08. 22:00 -
Sa, 24.08. 21:30 -
Sa, 24.08. 21:00 -
Link zu dieser Seite / Seite empfehlen

Das Wetter in ...